Impacts TAF Board
For situational awareness. Not to be used for flight planning purposes.
IDs:

KDTW - Detroit Metro/Wayne, MI, US

Issued at 2327 UTC 23 Oct 2019
Updated at 0020 UTC 24 Oct 2019
Potential Impact None Slight Moderate High
Time2353Z 24/01Z 24/02Z 24/03Z 24/04Z 24/05Z 24/06Z 24/07Z 24/08Z 24/09Z 24/10Z 24/11Z 24/12Z 24/13Z>>
Type OBS PRVL PRVL PRVL PRVL PRVL PRVL PRVL PRVL PRVL PRVL PRVL PRVL PRVL
VIS 10 >6 >6 >6 >6 >6 6 6 6 6 6 6 6 6
CIG 100 100 100 100 100 100 70 70 70 70 70 70 25 25
Cover BKN BKN BKN BKN BKN BKN OVC OVC OVC OVC OVC OVC OVC OVC
FltCat VFR VFR VFR VFR VFR VFR VFR VFR VFR VFR VFR VFR MVFR MVFR
WX -- -- -- -- -- -- -SHRA -SHRA -SHRA -SHRA -SHRA -SHRA BR BR
WDir 180 200 200 200 200 200 200 200 200 200 200 200 330 330
WSpd 6 7 7 7 7 7 5 5 5 5 5 5 5 5
WGst -- -- -- -- -- -- -- -- -- -- -- -- -- --
Raw TAF
KDTW 232327Z 2400/2506 20007KT P6SM BKN100
  FM240600 20005KT 6SM -SHRA OVC070 WS015/23040KT
  FM241200 33005KT 6SM BR BKN025 OVC040
  FM241600 28013KT P6SM BKN040
  FM242200 33005KT P6SM SCT070 BKN250


Raw METAR
KDTW 232353Z 18006KT 10SM BKN100 12/03 A3001 RMK AO2 SLP166 T01220028 10161 20117 53016
KDTW 232253Z 21009KT 10SM FEW065 SCT120 14/02 A3000 RMK AO2 SLP160 T01390017
KDTW 232153Z 23011KT 10SM FEW065 BKN120 15/02 A2998 RMK AO2 SLP153 T01500022

METAR Board
Radar Display
Forecast Discussion
For situational awareness. Not to be used for flight planning purposes.